sensor_id;sensor_type;location;lat;lon;timestamp;temperature;humidity
39045;DHT22;52192;52.002;5.956;2023-12-14T00:02:07;9.30;86.00
39045;DHT22;52192;52.002;5.956;2023-12-14T00:04:33;9.30;86.10
39045;DHT22;52192;52.002;5.956;2023-12-14T00:06:59;9.30;86.10
39045;DHT22;52192;52.002;5.956;2023-12-14T00:09:24;9.30;85.90
39045;DHT22;52192;52.002;5.956;2023-12-14T00:11:50;9.30;86.00
39045;DHT22;52192;52.002;5.956;2023-12-14T00:14:16;9.20;86.00
39045;DHT22;52192;52.002;5.956;2023-12-14T00:16:42;9.20;86.10
39045;DHT22;52192;52.002;5.956;2023-12-14T00:19:07;9.20;85.90
39045;DHT22;52192;52.002;5.956;2023-12-14T00:21:33;9.20;86.00
39045;DHT22;52192;52.002;5.956;2023-12-14T00:23:59;9.10;85.90
39045;DHT22;52192;52.002;5.956;2023-12-14T00:26:24;9.10;86.00
39045;DHT22;52192;52.002;5.956;2023-12-14T00:28:50;9.10;86.10
39045;DHT22;52192;52.002;5.956;2023-12-14T00:31:16;9.00;86.10
39045;DHT22;52192;52.002;5.956;2023-12-14T00:33:42;9.00;86.00
39045;DHT22;52192;52.002;5.956;2023-12-14T00:36:08;9.00;86.10
39045;DHT22;52192;52.002;5.956;2023-12-14T00:38:34;9.10;85.90
39045;DHT22;52192;52.002;5.956;2023-12-14T00:41:00;9.00;85.90
39045;DHT22;52192;52.002;5.956;2023-12-14T00:43:26;9.00;86.00
39045;DHT22;52192;52.002;5.956;2023-12-14T00:45:51;8.90;86.00
39045;DHT22;52192;52.002;5.956;2023-12-14T00:48:18;8.90;86.10
39045;DHT22;52192;52.002;5.956;2023-12-14T00:50:43;8.90;86.20
39045;DHT22;52192;52.002;5.956;2023-12-14T00:53:09;8.90;86.20
39045;DHT22;52192;52.002;5.956;2023-12-14T00:55:34;8.90;86.00
39045;DHT22;52192;52.002;5.956;2023-12-14T00:58:00;8.90;86.10
39045;DHT22;52192;52.002;5.956;2023-12-14T01:00:26;8.90;86.00
39045;DHT22;52192;52.002;5.956;2023-12-14T01:02:52;9.00;86.00
39045;DHT22;52192;52.002;5.956;2023-12-14T01:05:17;9.00;85.80
39045;DHT22;52192;52.002;5.956;2023-12-14T01:07:43;8.90;85.80
39045;DHT22;52192;52.002;5.956;2023-12-14T01:10:10;8.90;86.40
39045;DHT22;52192;52.002;5.956;2023-12-14T01:12:36;8.90;85.60
39045;DHT22;52192;52.002;5.956;2023-12-14T01:15:02;8.80;85.70
39045;DHT22;52192;52.002;5.956;2023-12-14T01:17:27;8.90;85.80
39045;DHT22;52192;52.002;5.956;2023-12-14T01:19:54;8.80;85.70
39045;DHT22;52192;52.002;5.956;2023-12-14T01:22:20;8.80;85.60
39045;DHT22;52192;52.002;5.956;2023-12-14T01:24:45;8.80;85.70
39045;DHT22;52192;52.002;5.956;2023-12-14T01:27:11;8.90;85.60
39045;DHT22;52192;52.002;5.956;2023-12-14T01:29:39;8.90;85.60
39045;DHT22;52192;52.002;5.956;2023-12-14T01:32:05;8.90;85.50
39045;DHT22;52192;52.002;5.956;2023-12-14T01:34:31;8.90;85.50
39045;DHT22;52192;52.002;5.956;2023-12-14T01:36:57;8.90;85.50
39045;DHT22;52192;52.002;5.956;2023-12-14T01:39:22;8.90;85.40
39045;DHT22;52192;52.002;5.956;2023-12-14T01:41:48;8.90;85.40
39045;DHT22;52192;52.002;5.956;2023-12-14T01:44:14;8.90;85.30
39045;DHT22;52192;52.002;5.956;2023-12-14T01:46:40;8.90;85.20
39045;DHT22;52192;52.002;5.956;2023-12-14T01:49:06;8.90;85.30
39045;DHT22;52192;52.002;5.956;2023-12-14T01:51:31;8.90;85.20
39045;DHT22;52192;52.002;5.956;2023-12-14T01:53:59;8.90;85.20
39045;DHT22;52192;52.002;5.956;2023-12-14T01:56:25;8.90;85.20
39045;DHT22;52192;52.002;5.956;2023-12-14T01:58:50;8.90;85.20
39045;DHT22;52192;52.002;5.956;2023-12-14T02:04:06;8.90;85.20
39045;DHT22;52192;52.002;5.956;2023-12-14T02:06:32;8.80;85.10
39045;DHT22;52192;52.002;5.956;2023-12-14T02:08:58;8.80;85.10
39045;DHT22;52192;52.002;5.956;2023-12-14T02:11:24;8.80;85.10
39045;DHT22;52192;52.002;5.956;2023-12-14T02:13:50;8.80;85.10
39045;DHT22;52192;52.002;5.956;2023-12-14T02:16:15;8.80;85.20
39045;DHT22;52192;52.002;5.956;2023-12-14T02:18:41;8.80;85.20
39045;DHT22;52192;52.002;5.956;2023-12-14T02:21:07;8.80;85.30
39045;DHT22;52192;52.002;5.956;2023-12-14T02:23:33;8.80;85.20
39045;DHT22;52192;52.002;5.956;2023-12-14T02:25:59;8.80;85.70
39045;DHT22;52192;52.002;5.956;2023-12-14T02:28:25;8.70;85.00
39045;DHT22;52192;52.002;5.956;2023-12-14T02:30:51;8.70;84.90
39045;DHT22;52192;52.002;5.956;2023-12-14T02:33:16;8.70;85.10
39045;DHT22;52192;52.002;5.956;2023-12-14T02:35:43;8.70;85.00
39045;DHT22;52192;52.002;5.956;2023-12-14T02:38:09;8.70;85.40
39045;DHT22;52192;52.002;5.956;2023-12-14T02:40:35;8.70;84.90
39045;DHT22;52192;52.002;5.956;2023-12-14T02:43:00;8.70;84.90
39045;DHT22;52192;52.002;5.956;2023-12-14T02:45:26;8.60;84.90
39045;DHT22;52192;52.002;5.956;2023-12-14T02:47:52;8.70;85.00
39045;DHT22;52192;52.002;5.956;2023-12-14T02:50:19;8.70;84.90
39045;DHT22;52192;52.002;5.956;2023-12-14T02:52:45;8.70;84.90
39045;DHT22;52192;52.002;5.956;2023-12-14T02:55:11;8.70;84.80
39045;DHT22;52192;52.002;5.956;2023-12-14T02:57:36;8.70;84.80
39045;DHT22;52192;52.002;5.956;2023-12-14T03:00:02;8.70;84.80
39045;DHT22;52192;52.002;5.956;2023-12-14T03:02:28;8.70;84.70
39045;DHT22;52192;52.002;5.956;2023-12-14T03:04:54;8.70;84.60
39045;DHT22;52192;52.002;5.956;2023-12-14T03:07:19;8.70;84.60
39045;DHT22;52192;52.002;5.956;2023-12-14T03:09:45;8.70;85.10
39045;DHT22;52192;52.002;5.956;2023-12-14T03:12:11;8.70;84.60
39045;DHT22;52192;52.002;5.956;2023-12-14T03:14:37;8.70;84.50
39045;DHT22;52192;52.002;5.956;2023-12-14T03:17:02;8.70;84.50
39045;DHT22;52192;52.002;5.956;2023-12-14T03:19:28;8.70;84.50
39045;DHT22;52192;52.002;5.956;2023-12-14T03:21:54;8.70;84.50
39045;DHT22;52192;52.002;5.956;2023-12-14T03:24:20;8.70;84.40
39045;DHT22;52192;52.002;5.956;2023-12-14T03:26:46;8.60;84.50
39045;DHT22;52192;52.002;5.956;2023-12-14T03:29:13;8.60;84.50
39045;DHT22;52192;52.002;5.956;2023-12-14T03:31:39;8.60;84.40
39045;DHT22;52192;52.002;5.956;2023-12-14T03:34:05;8.60;84.50
39045;DHT22;52192;52.002;5.956;2023-12-14T03:36:31;8.60;84.50
39045;DHT22;52192;52.002;5.956;2023-12-14T03:38:57;8.60;84.50
39045;DHT22;52192;52.002;5.956;2023-12-14T03:41:22;8.60;84.40
39045;DHT22;52192;52.002;5.956;2023-12-14T03:43:48;8.50;84.40
39045;DHT22;52192;52.002;5.956;2023-12-14T03:46:14;8.60;84.50
39045;DHT22;52192;52.002;5.956;2023-12-14T03:48:39;8.60;84.40
39045;DHT22;52192;52.002;5.956;2023-12-14T03:51:06;8.60;84.40
39045;DHT22;52192;52.002;5.956;2023-12-14T03:53:31;8.50;84.30
39045;DHT22;52192;52.002;5.956;2023-12-14T03:56:00;8.50;84.50
39045;DHT22;52192;52.002;5.956;2023-12-14T03:58:26;8.50;84.30
39045;DHT22;52192;52.002;5.956;2023-12-14T04:00:52;8.50;84.30
39045;DHT22;52192;52.002;5.956;2023-12-14T04:03:18;8.50;84.30
39045;DHT22;52192;52.002;5.956;2023-12-14T04:05:43;8.50;84.20
39045;DHT22;52192;52.002;5.956;2023-12-14T04:08:10;8.60;84.30
39045;DHT22;52192;52.002;5.956;2023-12-14T04:10:36;8.60;84.20
39045;DHT22;52192;52.002;5.956;2023-12-14T04:13:01;8.60;84.20
39045;DHT22;52192;52.002;5.956;2023-12-14T04:15:27;8.60;84.10
39045;DHT22;52192;52.002;5.956;2023-12-14T04:17:53;8.60;84.10
39045;DHT22;52192;52.002;5.956;2023-12-14T04:20:19;8.50;84.00
39045;DHT22;52192;52.002;5.956;2023-12-14T04:22:45;8.50;83.90
39045;DHT22;52192;52.002;5.956;2023-12-14T04:25:11;8.50;84.10
39045;DHT22;52192;52.002;5.956;2023-12-14T04:27:36;8.50;84.10
39045;DHT22;52192;52.002;5.956;2023-12-14T04:30:03;8.50;84.00
39045;DHT22;52192;52.002;5.956;2023-12-14T04:32:30;8.50;84.20
39045;DHT22;52192;52.002;5.956;2023-12-14T04:34:55;8.50;84.10
39045;DHT22;52192;52.002;5.956;2023-12-14T04:37:21;8.50;84.10
39045;DHT22;52192;52.002;5.956;2023-12-14T04:39:47;8.50;84.10
39045;DHT22;52192;52.002;5.956;2023-12-14T04:42:12;8.50;84.10
39045;DHT22;52192;52.002;5.956;2023-12-14T04:44:38;8.60;84.10
39045;DHT22;52192;52.002;5.956;2023-12-14T04:47:04;8.60;84.10
39045;DHT22;52192;52.002;5.956;2023-12-14T04:49:30;8.50;84.10
39045;DHT22;52192;52.002;5.956;2023-12-14T04:51:56;8.60;84.00
39045;DHT22;52192;52.002;5.956;2023-12-14T04:54:21;8.60;84.00
39045;DHT22;52192;52.002;5.956;2023-12-14T04:56:47;8.50;84.00
39045;DHT22;52192;52.002;5.956;2023-12-14T04:59:13;8.60;84.00
39045;DHT22;52192;52.002;5.956;2023-12-14T05:01:38;8.60;84.00
39045;DHT22;52192;52.002;5.956;2023-12-14T05:04:04;8.50;83.90
39045;DHT22;52192;52.002;5.956;2023-12-14T05:06:30;8.50;84.00
39045;DHT22;52192;52.002;5.956;2023-12-14T05:08:58;8.50;84.10
39045;DHT22;52192;52.002;5.956;2023-12-14T05:11:24;8.50;84.10
39045;DHT22;52192;52.002;5.956;2023-12-14T05:13:50;8.50;84.00
39045;DHT22;52192;52.002;5.956;2023-12-14T05:16:16;8.50;84.10
39045;DHT22;52192;52.002;5.956;2023-12-14T05:18:42;8.50;84.00
39045;DHT22;52192;52.002;5.956;2023-12-14T05:21:07;8.50;84.00
39045;DHT22;52192;52.002;5.956;2023-12-14T05:23:33;8.50;84.00
39045;DHT22;52192;52.002;5.956;2023-12-14T05:25:59;8.50;84.00
39045;DHT22;52192;52.002;5.956;2023-12-14T05:28:25;8.50;84.00
39045;DHT22;52192;52.002;5.956;2023-12-14T05:30:50;8.50;84.00
39045;DHT22;52192;52.002;5.956;2023-12-14T05:33:16;8.50;84.00
39045;DHT22;52192;52.002;5.956;2023-12-14T05:35:42;8.50;84.00
39045;DHT22;52192;52.002;5.956;2023-12-14T05:38:08;8.50;84.00
39045;DHT22;52192;52.002;5.956;2023-12-14T05:40:33;8.50;83.90
39045;DHT22;52192;52.002;5.956;2023-12-14T05:42:59;8.50;83.90
39045;DHT22;52192;52.002;5.956;2023-12-14T05:45:25;8.50;83.90
39045;DHT22;52192;52.002;5.956;2023-12-14T05:47:51;8.50;83.90
39045;DHT22;52192;52.002;5.956;2023-12-14T05:50:16;8.50;83.80
39045;DHT22;52192;52.002;5.956;2023-12-14T05:52:42;8.50;83.80
39045;DHT22;52192;52.002;5.956;2023-12-14T05:55:09;8.50;83.70
39045;DHT22;52192;52.002;5.956;2023-12-14T05:57:37;8.40;83.60
39045;DHT22;52192;52.002;5.956;2023-12-14T06:00:07;8.40;83.70
39045;DHT22;52192;52.002;5.956;2023-12-14T06:02:33;8.50;83.80
39045;DHT22;52192;52.002;5.956;2023-12-14T06:04:58;8.40;83.80
39045;DHT22;52192;52.002;5.956;2023-12-14T06:07:25;8.40;83.80
39045;DHT22;52192;52.002;5.956;2023-12-14T06:09:50;8.40;83.80
39045;DHT22;52192;52.002;5.956;2023-12-14T06:12:16;8.40;83.90
39045;DHT22;52192;52.002;5.956;2023-12-14T06:14:42;8.40;83.90
39045;DHT22;52192;52.002;5.956;2023-12-14T06:17:07;8.40;84.00
39045;DHT22;52192;52.002;5.956;2023-12-14T06:19:33;8.30;83.90
39045;DHT22;52192;52.002;5.956;2023-12-14T06:21:59;8.40;83.90
39045;DHT22;52192;52.002;5.956;2023-12-14T06:24:24;8.40;83.90
39045;DHT22;52192;52.002;5.956;2023-12-14T06:26:50;8.40;83.80
39045;DHT22;52192;52.002;5.956;2023-12-14T06:29:16;8.30;83.80
39045;DHT22;52192;52.002;5.956;2023-12-14T06:31:42;8.30;83.90
39045;DHT22;52192;52.002;5.956;2023-12-14T06:34:07;8.30;83.90
39045;DHT22;52192;52.002;5.956;2023-12-14T06:36:33;8.30;83.80
39045;DHT22;52192;52.002;5.956;2023-12-14T06:39:00;8.30;83.80
39045;DHT22;52192;52.002;5.956;2023-12-14T06:41:27;8.20;83.70
39045;DHT22;52192;52.002;5.956;2023-12-14T06:43:54;8.30;83.80
39045;DHT22;52192;52.002;5.956;2023-12-14T06:46:20;8.20;83.70
39045;DHT22;52192;52.002;5.956;2023-12-14T06:48:46;8.20;83.70
39045;DHT22;52192;52.002;5.956;2023-12-14T06:51:12;8.20;83.80
39045;DHT22;52192;52.002;5.956;2023-12-14T06:53:40;8.10;83.60
39045;DHT22;52192;52.002;5.956;2023-12-14T06:56:07;8.10;83.50
39045;DHT22;52192;52.002;5.956;2023-12-14T06:58:41;8.00;83.60
39045;DHT22;52192;52.002;5.956;2023-12-14T07:01:07;8.00;83.60
39045;DHT22;52192;52.002;5.956;2023-12-14T07:03:33;8.00;83.60
39045;DHT22;52192;52.002;5.956;2023-12-14T07:05:58;8.00;83.50
39045;DHT22;52192;52.002;5.956;2023-12-14T07:08:24;8.00;83.40
39045;DHT22;52192;52.002;5.956;2023-12-14T07:10:50;8.10;83.20
39045;DHT22;52192;52.002;5.956;2023-12-14T07:13:16;8.00;83.00
39045;DHT22;52192;52.002;5.956;2023-12-14T07:15:42;8.00;83.10
39045;DHT22;52192;52.002;5.956;2023-12-14T07:18:07;8.00;83.20
39045;DHT22;52192;52.002;5.956;2023-12-14T07:20:33;8.00;83.00
39045;DHT22;52192;52.002;5.956;2023-12-14T07:22:59;8.00;82.90
39045;DHT22;52192;52.002;5.956;2023-12-14T07:25:24;8.00;82.80
39045;DHT22;52192;52.002;5.956;2023-12-14T07:27:50;8.00;82.80
39045;DHT22;52192;52.002;5.956;2023-12-14T07:30:16;8.00;82.70
39045;DHT22;52192;52.002;5.956;2023-12-14T07:32:42;8.00;82.60
39045;DHT22;52192;52.002;5.956;2023-12-14T07:35:08;8.00;82.50
39045;DHT22;52192;52.002;5.956;2023-12-14T07:37:36;8.00;82.40
39045;DHT22;52192;52.002;5.956;2023-12-14T07:40:02;8.00;82.40
39045;DHT22;52192;52.002;5.956;2023-12-14T07:42:28;8.00;82.40
39045;DHT22;52192;52.002;5.956;2023-12-14T07:44:54;8.00;82.30
39045;DHT22;52192;52.002;5.956;2023-12-14T07:47:20;8.00;82.40
39045;DHT22;52192;52.002;5.956;2023-12-14T07:49:45;7.90;82.40
39045;DHT22;52192;52.002;5.956;2023-12-14T07:52:11;7.90;82.50
39045;DHT22;52192;52.002;5.956;2023-12-14T07:54:39;7.90;82.50
39045;DHT22;52192;52.002;5.956;2023-12-14T07:57:05;7.90;82.50
39045;DHT22;52192;52.002;5.956;2023-12-14T07:59:30;7.90;82.30
39045;DHT22;52192;52.002;5.956;2023-12-14T08:01:56;7.90;82.20
39045;DHT22;52192;52.002;5.956;2023-12-14T08:04:22;7.90;82.30
39045;DHT22;52192;52.002;5.956;2023-12-14T08:06:48;7.90;82.20
39045;DHT22;52192;52.002;5.956;2023-12-14T08:09:14;7.80;82.30
39045;DHT22;52192;52.002;5.956;2023-12-14T08:11:40;7.90;82.40
39045;DHT22;52192;52.002;5.956;2023-12-14T08:14:06;7.90;82.30
39045;DHT22;52192;52.002;5.956;2023-12-14T08:16:31;7.90;82.30
39045;DHT22;52192;52.002;5.956;2023-12-14T08:18:57;7.90;82.10
39045;DHT22;52192;52.002;5.956;2023-12-14T08:21:23;7.90;81.90
39045;DHT22;52192;52.002;5.956;2023-12-14T08:23:49;7.90;82.00
39045;DHT22;52192;52.002;5.956;2023-12-14T08:26:14;7.90;82.10
39045;DHT22;52192;52.002;5.956;2023-12-14T08:28:40;7.90;82.00
39045;DHT22;52192;52.002;5.956;2023-12-14T08:31:06;7.90;81.90
39045;DHT22;52192;52.002;5.956;2023-12-14T08:33:31;7.90;81.80
39045;DHT22;52192;52.002;5.956;2023-12-14T08:35:57;7.90;81.70
39045;DHT22;52192;52.002;5.956;2023-12-14T08:38:23;7.90;81.70
39045;DHT22;52192;52.002;5.956;2023-12-14T08:40:50;7.90;81.80
39045;DHT22;52192;52.002;5.956;2023-12-14T08:43:16;8.00;81.80
39045;DHT22;52192;52.002;5.956;2023-12-14T08:45:42;8.00;81.70
39045;DHT22;52192;52.002;5.956;2023-12-14T08:48:08;8.00;81.50
39045;DHT22;52192;52.002;5.956;2023-12-14T08:50:33;8.00;81.60
39045;DHT22;52192;52.002;5.956;2023-12-14T08:52:59;8.00;81.50
39045;DHT22;52192;52.002;5.956;2023-12-14T08:55:25;8.00;81.60
39045;DHT22;52192;52.002;5.956;2023-12-14T08:57:51;8.00;81.50
39045;DHT22;52192;52.002;5.956;2023-12-14T09:00:17;8.10;81.60
39045;DHT22;52192;52.002;5.956;2023-12-14T09:02:45;8.10;81.60
39045;DHT22;52192;52.002;5.956;2023-12-14T09:05:12;8.00;81.50
39045;DHT22;52192;52.002;5.956;2023-12-14T09:07:39;8.00;81.50
39045;DHT22;52192;52.002;5.956;2023-12-14T09:10:05;8.00;81.60
39045;DHT22;52192;52.002;5.956;2023-12-14T09:12:32;8.00;81.60
39045;DHT22;52192;52.002;5.956;2023-12-14T09:14:58;8.00;81.60
39045;DHT22;52192;52.002;5.956;2023-12-14T09:17:24;8.00;81.40
39045;DHT22;52192;52.002;5.956;2023-12-14T09:19:50;8.10;81.50
39045;DHT22;52192;52.002;5.956;2023-12-14T09:22:16;8.10;81.60
39045;DHT22;52192;52.002;5.956;2023-12-14T09:24:43;8.10;82.20
39045;DHT22;52192;52.002;5.956;2023-12-14T09:27:08;8.10;81.60
39045;DHT22;52192;52.002;5.956;2023-12-14T09:29:34;8.10;81.60
39045;DHT22;52192;52.002;5.956;2023-12-14T09:31:59;8.10;81.60
39045;DHT22;52192;52.002;5.956;2023-12-14T09:34:25;8.10;81.60
39045;DHT22;52192;52.002;5.956;2023-12-14T09:36:51;8.10;81.60
39045;DHT22;52192;52.002;5.956;2023-12-14T09:39:17;8.20;81.60
39045;DHT22;52192;52.002;5.956;2023-12-14T09:41:44;8.20;81.70
39045;DHT22;52192;52.002;5.956;2023-12-14T09:44:12;8.20;81.60
39045;DHT22;52192;52.002;5.956;2023-12-14T09:46:38;8.20;81.60
39045;DHT22;52192;52.002;5.956;2023-12-14T09:49:05;8.20;81.50
39045;DHT22;52192;52.002;5.956;2023-12-14T09:51:30;8.20;81.50
39045;DHT22;52192;52.002;5.956;2023-12-14T09:53:57;8.20;81.50
39045;DHT22;52192;52.002;5.956;2023-12-14T09:56:26;8.20;81.50
39045;DHT22;52192;52.002;5.956;2023-12-14T09:58:52;8.10;81.50
39045;DHT22;52192;52.002;5.956;2023-12-14T10:01:26;8.20;81.60
39045;DHT22;52192;52.002;5.956;2023-12-14T10:04:12;8.20;81.70
39045;DHT22;52192;52.002;5.956;2023-12-14T10:06:39;8.20;81.60
39045;DHT22;52192;52.002;5.956;2023-12-14T10:09:05;8.10;81.40
39045;DHT22;52192;52.002;5.956;2023-12-14T10:11:44;8.10;81.50
39045;DHT22;52192;52.002;5.956;2023-12-14T10:14:21;8.10;81.60
39045;DHT22;52192;52.002;5.956;2023-12-14T10:16:48;8.20;81.70
39045;DHT22;52192;52.002;5.956;2023-12-14T10:19:16;8.20;81.70
39045;DHT22;52192;52.002;5.956;2023-12-14T10:21:43;8.20;81.50
39045;DHT22;52192;52.002;5.956;2023-12-14T10:24:08;8.20;81.50
39045;DHT22;52192;52.002;5.956;2023-12-14T10:26:34;8.20;81.50
39045;DHT22;52192;52.002;5.956;2023-12-14T10:29:01;8.20;81.50
39045;DHT22;52192;52.002;5.956;2023-12-14T10:31:30;8.20;81.70
39045;DHT22;52192;52.002;5.956;2023-12-14T10:33:57;8.10;81.60
39045;DHT22;52192;52.002;5.956;2023-12-14T10:36:25;8.20;81.70
39045;DHT22;52192;52.002;5.956;2023-12-14T10:38:57;8.20;81.70
39045;DHT22;52192;52.002;5.956;2023-12-14T10:41:23;8.20;81.60
39045;DHT22;52192;52.002;5.956;2023-12-14T10:43:50;8.20;81.70
39045;DHT22;52192;52.002;5.956;2023-12-14T10:46:19;8.20;81.60
39045;DHT22;52192;52.002;5.956;2023-12-14T10:48:47;8.20;81.50
39045;DHT22;52192;52.002;5.956;2023-12-14T10:51:14;8.20;81.60
39045;DHT22;52192;52.002;5.956;2023-12-14T10:53:41;8.10;81.60
39045;DHT22;52192;52.002;5.956;2023-12-14T10:56:12;8.10;81.60
39045;DHT22;52192;52.002;5.956;2023-12-14T10:58:45;8.10;81.60
39045;DHT22;52192;52.002;5.956;2023-12-14T11:01:19;8.20;81.70
39045;DHT22;52192;52.002;5.956;2023-12-14T11:03:47;8.20;81.70
39045;DHT22;52192;52.002;5.956;2023-12-14T11:06:29;8.10;81.70
39045;DHT22;52192;52.002;5.956;2023-12-14T11:09:06;8.20;81.70
39045;DHT22;52192;52.002;5.956;2023-12-14T11:11:41;8.20;81.80
39045;DHT22;52192;52.002;5.956;2023-12-14T11:14:11;8.20;81.80
39045;DHT22;52192;52.002;5.956;2023-12-14T11:16:38;8.20;81.80
39045;DHT22;52192;52.002;5.956;2023-12-14T11:21:50;8.30;81.70
39045;DHT22;52192;52.002;5.956;2023-12-14T11:24:21;8.30;81.70
39045;DHT22;52192;52.002;5.956;2023-12-14T11:26:51;8.30;81.70
39045;DHT22;52192;52.002;5.956;2023-12-14T11:29:18;8.30;81.70
39045;DHT22;52192;52.002;5.956;2023-12-14T11:31:44;8.30;81.60
39045;DHT22;52192;52.002;5.956;2023-12-14T11:34:11;8.30;81.60
39045;DHT22;52192;52.002;5.956;2023-12-14T11:36:36;8.30;81.60
39045;DHT22;52192;52.002;5.956;2023-12-14T11:39:05;8.30;81.70
39045;DHT22;52192;52.002;5.956;2023-12-14T11:41:31;8.40;82.40
39045;DHT22;52192;52.002;5.956;2023-12-14T11:43:59;8.40;81.70
39045;DHT22;52192;52.002;5.956;2023-12-14T11:46:25;8.40;81.60
39045;DHT22;52192;52.002;5.956;2023-12-14T11:48:50;8.40;81.50
39045;DHT22;52192;52.002;5.956;2023-12-14T11:51:17;8.40;81.40
39045;DHT22;52192;52.002;5.956;2023-12-14T11:53:49;8.40;81.50
39045;DHT22;52192;52.002;5.956;2023-12-14T11:56:17;8.40;81.40
39045;DHT22;52192;52.002;5.956;2023-12-14T11:58:46;8.40;81.40
39045;DHT22;52192;52.002;5.956;2023-12-14T12:03:38;8.40;81.40
39045;DHT22;52192;52.002;5.956;2023-12-14T12:06:04;8.30;81.40
39045;DHT22;52192;52.002;5.956;2023-12-14T12:08:29;8.30;81.50
39045;DHT22;52192;52.002;5.956;2023-12-14T12:10:57;8.40;81.60
39045;DHT22;52192;52.002;5.956;2023-12-14T12:13:22;8.30;81.40
39045;DHT22;52192;52.002;5.956;2023-12-14T12:15:48;8.30;81.40
39045;DHT22;52192;52.002;5.956;2023-12-14T12:18:15;8.30;81.40
39045;DHT22;52192;52.002;5.956;2023-12-14T12:20:42;8.40;81.30
39045;DHT22;52192;52.002;5.956;2023-12-14T12:23:08;8.40;81.30
39045;DHT22;52192;52.002;5.956;2023-12-14T12:25:34;8.40;81.10
39045;DHT22;52192;52.002;5.956;2023-12-14T12:28:01;8.50;81.10
39045;DHT22;52192;52.002;5.956;2023-12-14T12:30:27;8.50;81.10
39045;DHT22;52192;52.002;5.956;2023-12-14T12:32:53;8.50;80.90
39045;DHT22;52192;52.002;5.956;2023-12-14T12:35:21;8.60;80.90
39045;DHT22;52192;52.002;5.956;2023-12-14T12:37:48;8.60;80.80
39045;DHT22;52192;52.002;5.956;2023-12-14T12:40:19;8.60;80.80
39045;DHT22;52192;52.002;5.956;2023-12-14T12:42:46;8.60;80.80
39045;DHT22;52192;52.002;5.956;2023-12-14T12:45:14;8.60;80.70
39045;DHT22;52192;52.002;5.956;2023-12-14T12:47:41;8.60;80.60
39045;DHT22;52192;52.002;5.956;2023-12-14T12:50:07;8.60;80.50
39045;DHT22;52192;52.002;5.956;2023-12-14T12:52:33;8.70;80.50
39045;DHT22;52192;52.002;5.956;2023-12-14T12:54:58;8.70;80.40
39045;DHT22;52192;52.002;5.956;2023-12-14T12:57:25;8.70;80.30
39045;DHT22;52192;52.002;5.956;2023-12-14T12:59:51;8.70;80.30
39045;DHT22;52192;52.002;5.956;2023-12-14T13:02:17;8.80;80.20
39045;DHT22;52192;52.002;5.956;2023-12-14T13:04:43;8.80;80.00
39045;DHT22;52192;52.002;5.956;2023-12-14T13:07:09;8.80;79.90
39045;DHT22;52192;52.002;5.956;2023-12-14T13:09:34;8.80;79.80
39045;DHT22;52192;52.002;5.956;2023-12-14T13:12:00;8.70;79.70
39045;DHT22;52192;52.002;5.956;2023-12-14T13:14:26;8.80;79.70
39045;DHT22;52192;52.002;5.956;2023-12-14T13:16:51;8.80;79.60
39045;DHT22;52192;52.002;5.956;2023-12-14T13:19:17;8.80;79.70
39045;DHT22;52192;52.002;5.956;2023-12-14T13:21:42;8.80;79.70
39045;DHT22;52192;52.002;5.956;2023-12-14T13:24:08;8.80;79.50
39045;DHT22;52192;52.002;5.956;2023-12-14T13:26:34;8.80;79.10
39045;DHT22;52192;52.002;5.956;2023-12-14T13:28:59;8.80;79.20
39045;DHT22;52192;52.002;5.956;2023-12-14T13:31:25;8.80;79.10
39045;DHT22;52192;52.002;5.956;2023-12-14T13:33:51;8.90;79.10
39045;DHT22;52192;52.002;5.956;2023-12-14T13:36:17;8.90;79.00
39045;DHT22;52192;52.002;5.956;2023-12-14T13:38:44;9.00;79.00
39045;DHT22;52192;52.002;5.956;2023-12-14T13:41:10;9.00;78.70
39045;DHT22;52192;52.002;5.956;2023-12-14T13:43:36;9.00;79.20
39045;DHT22;52192;52.002;5.956;2023-12-14T13:46:02;9.00;78.50
39045;DHT22;52192;52.002;5.956;2023-12-14T13:48:28;8.90;78.50
39045;DHT22;52192;52.002;5.956;2023-12-14T13:50:54;8.90;78.20
39045;DHT22;52192;52.002;5.956;2023-12-14T13:53:21;8.80;78.20
39045;DHT22;52192;52.002;5.956;2023-12-14T13:55:47;8.70;78.40
39045;DHT22;52192;52.002;5.956;2023-12-14T13:58:14;8.70;78.50
39045;DHT22;52192;52.002;5.956;2023-12-14T14:00:41;8.70;78.50
39045;DHT22;52192;52.002;5.956;2023-12-14T14:03:06;8.70;78.50
39045;DHT22;52192;52.002;5.956;2023-12-14T14:05:33;8.70;78.30
39045;DHT22;52192;52.002;5.956;2023-12-14T14:07:59;8.70;78.20
39045;DHT22;52192;52.002;5.956;2023-12-14T14:10:24;8.60;78.00
39045;DHT22;52192;52.002;5.956;2023-12-14T14:12:50;8.60;78.20
39045;DHT22;52192;52.002;5.956;2023-12-14T14:15:17;8.60;78.20
39045;DHT22;52192;52.002;5.956;2023-12-14T14:17:42;8.60;78.30
39045;DHT22;52192;52.002;5.956;2023-12-14T14:20:08;8.60;78.30
39045;DHT22;52192;52.002;5.956;2023-12-14T14:22:38;8.60;78.30
39045;DHT22;52192;52.002;5.956;2023-12-14T14:25:06;8.60;78.40
39045;DHT22;52192;52.002;5.956;2023-12-14T14:27:33;8.70;78.10
39045;DHT22;52192;52.002;5.956;2023-12-14T14:29:59;8.70;78.10
39045;DHT22;52192;52.002;5.956;2023-12-14T14:32:24;8.70;77.80
39045;DHT22;52192;52.002;5.956;2023-12-14T14:34:50;8.80;78.00
39045;DHT22;52192;52.002;5.956;2023-12-14T14:37:16;8.90;77.70
39045;DHT22;52192;52.002;5.956;2023-12-14T14:39:42;8.90;77.50
39045;DHT22;52192;52.002;5.956;2023-12-14T14:42:09;8.90;77.30
39045;DHT22;52192;52.002;5.956;2023-12-14T14:44:35;8.90;76.90
39045;DHT22;52192;52.002;5.956;2023-12-14T14:47:02;8.80;76.70
39045;DHT22;52192;52.002;5.956;2023-12-14T14:49:27;8.80;77.00
39045;DHT22;52192;52.002;5.956;2023-12-14T14:51:53;8.80;77.10
39045;DHT22;52192;52.002;5.956;2023-12-14T14:54:19;8.90;77.20
39045;DHT22;52192;52.002;5.956;2023-12-14T14:56:44;8.80;77.10
39045;DHT22;52192;52.002;5.956;2023-12-14T14:59:10;8.80;77.20
39045;DHT22;52192;52.002;5.956;2023-12-14T15:01:37;8.80;77.30
39045;DHT22;52192;52.002;5.956;2023-12-14T15:04:02;8.70;77.40
39045;DHT22;52192;52.002;5.956;2023-12-14T15:06:28;8.60;77.40
39045;DHT22;52192;52.002;5.956;2023-12-14T15:08:54;8.50;77.70
39045;DHT22;52192;52.002;5.956;2023-12-14T15:11:20;8.40;77.80
39045;DHT22;52192;52.002;5.956;2023-12-14T15:13:46;8.40;78.00
39045;DHT22;52192;52.002;5.956;2023-12-14T15:16:11;8.40;78.00
39045;DHT22;52192;52.002;5.956;2023-12-14T15:18:38;8.40;78.00
39045;DHT22;52192;52.002;5.956;2023-12-14T15:21:10;8.30;78.20
39045;DHT22;52192;52.002;5.956;2023-12-14T15:23:37;8.40;78.30
39045;DHT22;52192;52.002;5.956;2023-12-14T15:26:03;8.40;78.30
39045;DHT22;52192;52.002;5.956;2023-12-14T15:28:29;8.40;78.20
39045;DHT22;52192;52.002;5.956;2023-12-14T15:30:55;8.40;78.30
39045;DHT22;52192;52.002;5.956;2023-12-14T15:33:20;8.40;78.30
39045;DHT22;52192;52.002;5.956;2023-12-14T15:35:46;8.40;78.30
39045;DHT22;52192;52.002;5.956;2023-12-14T15:38:12;8.40;78.40
39045;DHT22;52192;52.002;5.956;2023-12-14T15:40:38;8.40;78.50
39045;DHT22;52192;52.002;5.956;2023-12-14T15:43:04;8.40;78.50
39045;DHT22;52192;52.002;5.956;2023-12-14T15:45:31;8.40;78.60
39045;DHT22;52192;52.002;5.956;2023-12-14T15:48:02;8.40;78.70